createdAt,value
2023-11-22T00:00:29.893Z,9.99
2023-11-22T00:05:56.823Z,10.00
2023-11-22T00:11:04.174Z,9.99
2023-11-22T00:16:12.113Z,9.97
2023-11-22T00:21:19.304Z,9.98
2023-11-22T00:26:26.521Z,9.96
2023-11-22T00:31:33.975Z,9.97
2023-11-22T00:36:41.012Z,9.96
2023-11-22T00:41:48.078Z,9.95
2023-11-22T00:46:55.224Z,9.94
2023-11-22T00:52:04.084Z,9.95
2023-11-22T00:57:11.274Z,9.96
2023-11-22T01:02:18.465Z,9.95
2023-11-22T01:07:25.635Z,9.94
2023-11-22T01:12:32.679Z,9.94
2023-11-22T01:17:39.784Z,9.93
2023-11-22T01:22:46.890Z,9.92
2023-11-22T01:27:54.231Z,9.92
2023-11-22T01:33:01.397Z,9.92
2023-11-22T01:38:08.347Z,9.91
2023-11-22T01:43:18.040Z,9.91
2023-11-22T01:48:25.527Z,9.92
2023-11-22T01:53:34.051Z,9.90
2023-11-22T01:58:41.209Z,9.89
2023-11-22T02:03:49.976Z,9.90
2023-11-22T02:08:57.023Z,9.90
2023-11-22T02:14:04.056Z,9.89
2023-11-22T02:19:17.250Z,9.89
2023-11-22T02:24:24.413Z,9.89
2023-11-22T02:29:31.492Z,9.87
2023-11-22T02:34:38.709Z,9.87
2023-11-22T02:39:52.784Z,9.88
2023-11-22T02:44:59.813Z,9.88
2023-11-22T02:50:07.301Z,9.86
2023-11-22T02:55:14.413Z,9.86
2023-11-22T03:00:21.798Z,9.84
2023-11-22T03:05:28.803Z,9.85
2023-11-22T03:10:37.051Z,9.84
2023-11-22T03:15:44.042Z,9.83
2023-11-22T03:20:55.910Z,9.83
2023-11-22T03:26:03.111Z,9.83
2023-11-22T03:31:10.731Z,9.83
2023-11-22T03:36:17.989Z,9.83
2023-11-22T03:41:24.725Z,9.82
2023-11-22T03:46:31.792Z,9.83
2023-11-22T03:51:39.383Z,9.81
2023-11-22T03:56:46.405Z,9.80
2023-11-22T04:01:53.610Z,9.79
2023-11-22T04:07:00.875Z,9.80
2023-11-22T04:12:08.457Z,9.81
2023-11-22T04:17:15.433Z,9.80
2023-11-22T04:22:22.942Z,9.80
2023-11-22T04:27:29.993Z,9.79
2023-11-22T04:32:37.754Z,9.78
2023-11-22T04:37:44.818Z,9.78
2023-11-22T04:42:51.864Z,9.77
2023-11-22T04:47:59.635Z,9.77
2023-11-22T04:53:06.925Z,9.77
2023-11-22T04:58:14.199Z,9.76
2023-11-22T05:03:21.223Z,9.75
2023-11-22T05:08:29.041Z,9.76
2023-11-22T05:13:36.054Z,9.75
2023-11-22T05:18:43.211Z,9.75
2023-11-22T05:23:50.209Z,9.73
2023-11-22T05:28:57.355Z,9.74
2023-11-22T05:34:04.846Z,9.74
2023-11-22T05:39:13.478Z,9.72
2023-11-22T05:44:20.651Z,9.73
2023-11-22T05:49:27.774Z,9.73
2023-11-22T05:54:34.897Z,9.71
2023-11-22T05:59:42.109Z,9.72
2023-11-22T06:04:49.444Z,9.70
2023-11-22T06:09:56.445Z,9.71
2023-11-22T06:15:05.026Z,9.71
2023-11-22T06:20:13.118Z,9.71
2023-11-22T06:25:20.154Z,9.70
2023-11-22T06:30:27.662Z,9.68
2023-11-22T06:35:34.841Z,9.67
2023-11-22T06:40:41.965Z,9.69
2023-11-22T06:45:49.264Z,9.69
2023-11-22T06:50:56.554Z,9.67
2023-11-22T06:56:05.154Z,9.67
2023-11-22T07:01:13.824Z,9.65
2023-11-22T07:06:24.007Z,9.65
2023-11-22T07:11:32.290Z,9.65
2023-11-22T07:16:39.391Z,9.66
2023-11-22T07:21:46.517Z,9.65
2023-11-22T07:26:54.733Z,9.65
2023-11-22T07:32:02.486Z,9.64
2023-11-22T07:37:10.737Z,9.63
2023-11-22T07:42:17.715Z,9.64
2023-11-22T07:47:26.002Z,9.64
2023-11-22T07:52:33.765Z,9.63
2023-11-22T07:57:42.318Z,9.62
2023-11-22T08:02:49.283Z,9.63
2023-11-22T08:07:56.496Z,9.62
2023-11-22T08:13:03.775Z,9.62
2023-11-22T08:18:11.854Z,9.61
2023-11-22T08:23:19.794Z,9.62
2023-11-22T08:28:27.415Z,9.61
2023-11-22T08:33:34.639Z,9.60
2023-11-22T08:38:42.892Z,9.61
2023-11-22T08:43:51.001Z,9.61
2023-11-22T08:48:58.218Z,9.61
2023-11-22T08:54:06.114Z,9.60
2023-11-22T08:59:13.487Z,9.60
2023-11-22T09:04:21.422Z,9.61
2023-11-22T09:09:32.712Z,9.60
2023-11-22T09:14:39.812Z,9.61
2023-11-22T09:19:47.178Z,9.62
2023-11-22T09:24:54.459Z,9.62
2023-11-22T09:30:01.927Z,9.61
2023-11-22T09:35:11.123Z,9.61
2023-11-22T09:40:19.835Z,9.61
2023-11-22T09:45:27.791Z,9.61
2023-11-22T09:50:38.835Z,9.61
2023-11-22T09:55:47.517Z,9.61
2023-11-22T10:00:55.593Z,9.60
2023-11-22T10:06:05.927Z,9.60
2023-11-22T10:11:14.780Z,9.59
2023-11-22T10:16:22.637Z,9.59
2023-11-22T10:21:31.975Z,9.58
2023-11-22T10:26:38.978Z,9.59
2023-11-22T10:31:47.282Z,9.57
2023-11-22T10:36:55.799Z,9.56
2023-11-22T10:42:03.071Z,9.55
2023-11-22T10:47:11.073Z,9.54
2023-11-22T10:52:20.553Z,9.54
2023-11-22T10:57:29.626Z,9.55
2023-11-22T11:02:38.992Z,9.55
2023-11-22T11:07:48.025Z,9.55
2023-11-22T11:12:55.944Z,9.55
2023-11-22T11:18:04.339Z,9.54
2023-11-22T11:23:16.583Z,9.53
2023-11-22T11:28:23.727Z,9.52
2023-11-22T11:33:36.864Z,9.52
2023-11-22T11:38:43.875Z,9.52
2023-11-22T11:43:51.832Z,9.51
2023-11-22T11:48:59.080Z,9.49
2023-11-22T11:54:07.046Z,9.49
2023-11-22T11:59:14.295Z,9.47
2023-11-22T12:04:21.304Z,9.48
2023-11-22T12:09:29.193Z,9.47
2023-11-22T12:14:36.477Z,9.47
2023-11-22T12:19:43.692Z,9.46
2023-11-22T12:24:52.298Z,9.45
2023-11-22T12:29:59.717Z,9.46
2023-11-22T12:35:08.962Z,9.45
2023-11-22T12:40:19.134Z,9.44
2023-11-22T12:45:27.021Z,9.43
2023-11-22T12:50:34.638Z,9.43
2023-11-22T12:55:44.902Z,9.43
2023-11-22T13:00:53.100Z,9.42
2023-11-22T13:06:00.318Z,9.41
2023-11-22T13:11:09.237Z,9.40
2023-11-22T13:16:17.970Z,9.41
2023-11-22T13:21:25.334Z,9.39
2023-11-22T13:26:32.441Z,9.39
2023-11-22T13:31:39.555Z,9.38
2023-11-22T13:36:46.842Z,9.40
2023-11-22T13:41:54.394Z,9.39
2023-11-22T13:47:01.492Z,9.38
2023-11-22T13:52:08.803Z,9.38
2023-11-22T13:57:15.958Z,9.37
2023-11-22T14:02:23.140Z,9.36
2023-11-22T14:07:30.851Z,9.36
2023-11-22T14:12:38.255Z,9.36
2023-11-22T14:17:45.518Z,9.34
2023-11-22T14:22:53.689Z,9.35
2023-11-22T14:28:01.237Z,9.34
2023-11-22T14:33:09.555Z,9.33
2023-11-22T14:38:16.982Z,9.33
2023-11-22T14:43:24.081Z,9.32
2023-11-22T14:48:31.235Z,9.31
2023-11-22T14:53:40.248Z,9.31
2023-11-22T14:58:55.365Z,9.33
2023-11-22T15:04:02.473Z,9.38
2023-11-22T15:09:11.356Z,9.47
2023-11-22T15:14:18.331Z,9.47
2023-11-22T15:19:29.175Z,9.43
2023-11-22T15:24:36.594Z,9.46
2023-11-22T15:29:43.881Z,9.58
2023-11-22T15:34:50.937Z,9.68
2023-11-22T15:39:57.909Z,9.71
2023-11-22T15:45:04.994Z,9.70
2023-11-22T15:55:34.261Z,9.79
2023-11-22T16:00:41.953Z,9.85
2023-11-22T16:05:50.200Z,9.94
2023-11-22T16:10:57.314Z,10.01
2023-11-22T16:16:04.687Z,10.08
2023-11-22T16:21:12.598Z,10.17
2023-11-22T16:26:20.843Z,10.26
2023-11-22T16:31:27.932Z,10.34
2023-11-22T16:36:35.179Z,10.41
2023-11-22T16:41:43.545Z,10.48
2023-11-22T16:46:50.883Z,10.55
2023-11-22T16:51:57.724Z,10.61
2023-11-22T16:57:04.756Z,10.68
2023-11-22T17:02:13.848Z,10.73
2023-11-22T17:07:20.901Z,10.77
2023-11-22T17:12:28.182Z,10.81
2023-11-22T17:17:36.467Z,10.85
2023-11-22T17:22:43.842Z,10.89
2023-11-22T17:27:55.191Z,10.92
2023-11-22T17:33:04.215Z,10.98
2023-11-22T17:38:11.655Z,11.02
2023-11-22T17:43:19.545Z,11.02
2023-11-22T17:48:26.691Z,11.05
2023-11-22T17:53:33.932Z,11.05
2023-11-22T17:58:41.607Z,11.06
2023-11-22T18:03:49.089Z,11.07
2023-11-22T18:08:59.080Z,11.05
2023-11-22T18:14:08.610Z,11.08
2023-11-22T18:19:15.767Z,11.06
2023-11-22T18:24:23.976Z,11.06
2023-11-22T18:29:31.229Z,11.07
2023-11-22T18:34:38.217Z,11.04
2023-11-22T18:39:45.275Z,11.02
2023-11-22T18:44:52.427Z,11.01
2023-11-22T18:49:59.627Z,11.00
2023-11-22T18:55:07.253Z,11.01
2023-11-22T19:00:15.639Z,10.98
2023-11-22T19:05:22.957Z,10.96
2023-11-22T19:10:30.185Z,10.95
2023-11-22T19:15:45.514Z,10.94
2023-11-22T19:20:55.712Z,10.92
2023-11-22T19:26:02.809Z,10.90
2023-11-22T19:31:13.284Z,10.87
2023-11-22T19:36:26.609Z,10.85
2023-11-22T19:41:33.517Z,10.82
2023-11-22T19:46:43.326Z,10.80
2023-11-22T19:51:51.555Z,10.77
2023-11-22T19:56:59.200Z,10.77
2023-11-22T20:02:06.687Z,10.74
2023-11-22T20:07:14.074Z,10.75
2023-11-22T20:12:21.218Z,10.75
2023-11-22T20:17:28.677Z,10.74
2023-11-22T20:22:35.677Z,10.73
2023-11-22T20:27:43.133Z,10.72
2023-11-22T20:32:50.140Z,10.71
2023-11-22T20:37:57.222Z,10.71
2023-11-22T20:43:04.028Z,10.71
2023-11-22T20:48:11.311Z,10.70
2023-11-22T20:53:18.797Z,10.66
2023-11-22T20:58:25.912Z,10.64
2023-11-22T21:03:32.971Z,10.67
2023-11-22T21:08:40.323Z,10.67
2023-11-22T21:13:47.667Z,10.63
2023-11-22T21:18:54.803Z,10.64
2023-11-22T21:24:01.933Z,10.60
2023-11-22T21:29:09.032Z,10.56
2023-11-22T21:34:15.894Z,10.56
2023-11-22T21:39:24.726Z,10.54
2023-11-22T21:44:33.005Z,10.53
2023-11-22T21:49:41.012Z,10.51
2023-11-22T21:54:48.163Z,10.49
2023-11-22T21:59:56.179Z,10.49
2023-11-22T22:05:03.157Z,10.47
2023-11-22T22:10:10.947Z,10.46
2023-11-22T22:15:18.289Z,10.45
2023-11-22T22:20:26.649Z,10.44
2023-11-22T22:25:33.618Z,10.43
2023-11-22T22:30:40.611Z,10.42
2023-11-22T22:35:47.718Z,10.39
2023-11-22T22:40:54.709Z,10.37
2023-11-22T22:46:01.656Z,10.35
2023-11-22T22:51:13.416Z,10.34
2023-11-22T22:56:22.171Z,10.33
2023-11-22T23:01:29.409Z,10.32
2023-11-22T23:06:37.490Z,10.30
2023-11-22T23:11:44.846Z,10.29
2023-11-22T23:16:52.113Z,10.26
2023-11-22T23:22:00.230Z,10.25
2023-11-22T23:27:07.629Z,10.25
2023-11-22T23:32:14.625Z,10.24
2023-11-22T23:37:21.733Z,10.23
2023-11-22T23:42:29.450Z,10.21
2023-11-22T23:47:36.651Z,10.20
2023-11-22T23:52:45.496Z,10.20
2023-11-22T23:57:52.721Z,10.17
